createdAt,value
2023-01-10T00:01:42.277Z,59.21
2023-01-10T00:04:10.163Z,59.66
2023-01-10T00:06:38.437Z,60.62
2023-01-10T00:09:06.205Z,61.37
2023-01-10T00:11:52.883Z,61.46
2023-01-10T00:14:20.756Z,65.65
2023-01-10T00:16:48.524Z,65.94
2023-01-10T00:19:16.327Z,62.82
2023-01-10T00:21:44.039Z,59.86
2023-01-10T00:24:22.345Z,56.41
2023-01-10T00:26:51.534Z,55.76
2023-01-10T00:29:28.955Z,56.86
2023-01-10T00:31:57.410Z,57.96
2023-01-10T00:34:25.230Z,58.59
2023-01-10T00:36:53.379Z,59.49
2023-01-10T00:39:21.199Z,60.36
2023-01-10T00:42:07.496Z,60.97
2023-01-10T00:44:35.569Z,61.40
2023-01-10T00:47:03.570Z,64.09
2023-01-10T00:49:31.331Z,66.38
2023-01-10T00:51:59.961Z,62.24
2023-01-10T00:54:27.880Z,57.10
2023-01-10T00:56:55.747Z,55.90
2023-01-10T00:59:24.073Z,56.65
2023-01-10T01:01:52.791Z,57.69
2023-01-10T01:04:21.599Z,58.53
2023-01-10T01:06:50.849Z,59.35
2023-01-10T01:09:18.730Z,59.94
2023-01-10T01:11:46.542Z,60.38
2023-01-10T01:14:14.262Z,61.10
2023-01-10T01:16:42.036Z,61.71
2023-01-10T01:19:09.839Z,64.37
2023-01-10T01:21:37.615Z,66.65
2023-01-10T01:24:05.556Z,63.38
2023-01-10T01:26:35.311Z,57.61
2023-01-10T01:29:03.205Z,54.95
2023-01-10T01:31:31.120Z,55.91
2023-01-10T01:33:59.306Z,57.18
2023-01-10T01:36:27.067Z,57.96
2023-01-10T01:38:54.780Z,58.90
2023-01-10T01:41:41.450Z,59.61
2023-01-10T01:44:17.585Z,59.87
2023-01-10T01:46:49.045Z,60.76
2023-01-10T01:49:23.733Z,61.20
2023-01-10T01:51:57.772Z,64.98
2023-01-10T01:54:26.205Z,66.85
2023-01-10T01:57:00.680Z,61.08
2023-01-10T01:59:34.448Z,56.23
2023-01-10T02:02:08.760Z,55.07
2023-01-10T02:04:42.671Z,55.95
2023-01-10T02:07:10.929Z,57.04
2023-01-10T02:09:46.359Z,57.74
2023-01-10T02:12:15.552Z,58.44
2023-01-10T02:14:45.130Z,59.19
2023-01-10T02:17:13.273Z,60.05
2023-01-10T02:19:51.186Z,60.70
2023-01-10T02:22:39.815Z,60.92
2023-01-10T02:25:25.915Z,61.20
2023-01-10T02:28:20.309Z,65.82
2023-01-10T02:31:13.006Z,65.54
2023-01-10T02:33:59.572Z,62.19
2023-01-10T02:36:33.548Z,57.56
2023-01-10T02:39:26.194Z,55.12
2023-01-10T02:42:07.608Z,55.65
2023-01-10T02:44:54.865Z,57.33
2023-01-10T02:47:22.572Z,58.25
2023-01-10T02:49:51.875Z,59.30
2023-01-10T02:52:28.394Z,60.90
2023-01-10T02:54:59.723Z,61.19
2023-01-10T02:57:47.626Z,61.93
2023-01-10T03:00:30.900Z,65.60
2023-01-10T03:03:07.989Z,66.24
2023-01-10T03:06:07.919Z,62.41
2023-01-10T03:08:40.555Z,61.04
2023-01-10T03:11:09.851Z,57.23
2023-01-10T03:13:46.840Z,55.76
2023-01-10T03:16:18.566Z,56.64
2023-01-10T03:19:05.068Z,58.20
2023-01-10T03:21:33.349Z,60.14
2023-01-10T03:24:06.390Z,60.82
2023-01-10T03:26:42.494Z,61.40
2023-01-10T03:29:11.836Z,64.74
2023-01-10T03:31:49.864Z,66.52
2023-01-10T03:34:17.961Z,64.48
2023-01-10T03:37:03.370Z,59.62
2023-01-10T03:39:41.612Z,55.61
2023-01-10T03:42:15.933Z,55.40
2023-01-10T03:44:43.767Z,56.36
2023-01-10T03:47:39.027Z,57.94
2023-01-10T03:50:11.137Z,59.58
2023-01-10T03:52:40.795Z,61.05
2023-01-10T03:55:12.309Z,61.05
2023-01-10T03:57:42.687Z,62.82
2023-01-10T04:00:11.206Z,66.96
2023-01-10T04:02:39.337Z,63.79
2023-01-10T04:05:07.817Z,59.67
2023-01-10T04:07:35.709Z,54.17
2023-01-10T04:10:05.318Z,54.33
2023-01-10T04:12:33.270Z,55.41
2023-01-10T04:15:01.614Z,56.82
2023-01-10T04:17:29.527Z,58.30
2023-01-10T04:19:57.287Z,59.07
2023-01-10T04:22:25.373Z,59.86
2023-01-10T04:24:54.491Z,61.77
2023-01-10T04:27:22.380Z,63.91
2023-01-10T04:29:50.121Z,65.95
2023-01-10T04:32:17.920Z,63.17
2023-01-10T04:34:45.750Z,59.86
2023-01-10T04:37:13.611Z,55.77
2023-01-10T04:39:41.336Z,55.15
2023-01-10T04:42:09.124Z,56.08
2023-01-10T04:44:37.061Z,57.52
2023-01-10T04:47:04.911Z,58.80
2023-01-10T04:49:32.723Z,59.99
2023-01-10T04:52:00.720Z,60.47
2023-01-10T04:54:28.416Z,62.78
2023-01-10T04:56:56.212Z,65.56
2023-01-10T04:59:24.087Z,63.96
2023-01-10T05:01:51.878Z,60.94
2023-01-10T05:04:21.004Z,56.76
2023-01-10T05:06:49.410Z,55.82
2023-01-10T05:09:17.587Z,56.40
2023-01-10T05:11:45.598Z,57.82
2023-01-10T05:14:13.465Z,59.18
2023-01-10T05:16:41.323Z,59.80
2023-01-10T05:19:09.549Z,61.66
2023-01-10T05:21:37.273Z,64.90
2023-01-10T05:24:05.721Z,64.31
2023-01-10T05:26:33.545Z,62.44
2023-01-10T05:29:01.367Z,60.42
2023-01-10T05:31:29.209Z,58.01
2023-01-10T05:33:56.933Z,56.86
2023-01-10T05:36:24.808Z,57.31
2023-01-10T05:38:52.686Z,58.88
2023-01-10T05:41:20.894Z,59.76
2023-01-10T05:43:48.604Z,61.12
2023-01-10T05:46:16.392Z,64.08
2023-01-10T05:48:44.200Z,65.04
2023-01-10T05:51:12.127Z,61.41
2023-01-10T05:53:39.931Z,60.62
2023-01-10T05:56:07.797Z,59.88
2023-01-10T05:58:35.607Z,57.17
2023-01-10T06:01:03.494Z,56.18
2023-01-10T06:03:31.345Z,57.53
2023-01-10T06:05:59.285Z,58.48
2023-01-10T06:08:27.176Z,60.58
2023-01-10T06:10:55.699Z,61.26
2023-01-10T06:13:23.916Z,65.23
2023-01-10T06:15:51.716Z,65.70
2023-01-10T06:18:19.524Z,61.37
2023-01-10T06:20:47.301Z,60.17
2023-01-10T06:23:15.547Z,60.34
2023-01-10T06:25:43.472Z,57.76
2023-01-10T06:28:12.733Z,56.96
2023-01-10T06:30:42.089Z,57.83
2023-01-10T06:33:11.362Z,58.91
2023-01-10T06:35:39.866Z,60.39
2023-01-10T06:38:07.842Z,60.77
2023-01-10T06:40:35.625Z,61.69
2023-01-10T06:43:03.437Z,64.11
2023-01-10T06:45:31.250Z,66.70
2023-01-10T06:47:58.958Z,64.02
2023-01-10T06:50:26.907Z,61.88
2023-01-10T06:53:02.512Z,60.65
2023-01-10T06:55:31.518Z,60.92
2023-01-10T06:58:01.790Z,58.29
2023-01-10T07:00:30.514Z,56.95
2023-01-10T07:03:00.772Z,58.12
2023-01-10T07:05:29.703Z,59.30
2023-01-10T07:07:58.896Z,60.11
2023-01-10T07:10:27.732Z,61.02
2023-01-10T07:12:55.856Z,62.44
2023-01-10T07:15:23.641Z,64.95
2023-01-10T07:17:51.510Z,65.34
2023-01-10T07:20:20.070Z,64.61
2023-01-10T07:22:58.672Z,62.31
2023-01-10T07:25:28.179Z,59.93
2023-01-10T07:27:55.983Z,57.24
2023-01-10T07:30:25.405Z,56.45
2023-01-10T07:32:57.154Z,57.92
2023-01-10T07:35:25.577Z,59.24
2023-01-10T07:37:53.413Z,60.85
2023-01-10T07:40:21.201Z,63.76
2023-01-10T07:42:49.119Z,65.01
2023-01-10T07:45:16.833Z,62.76
2023-01-10T07:47:44.749Z,61.56
2023-01-10T07:50:12.530Z,58.83
2023-01-10T07:52:40.361Z,57.37
2023-01-10T07:55:08.695Z,58.49
2023-01-10T07:57:36.544Z,59.80
2023-01-10T08:00:04.544Z,60.94
2023-01-10T08:02:32.922Z,63.38
2023-01-10T08:05:01.273Z,64.85
2023-01-10T08:07:30.396Z,63.12
2023-01-10T08:09:58.657Z,61.48
2023-01-10T08:12:26.467Z,59.22
2023-01-10T08:14:54.243Z,56.00
2023-01-10T08:17:23.049Z,56.52
2023-01-10T08:19:50.941Z,58.60
2023-01-10T08:22:18.691Z,59.98
2023-01-10T08:24:46.376Z,61.15
2023-01-10T08:27:14.134Z,65.05
2023-01-10T08:29:42.229Z,64.64
2023-01-10T08:32:10.145Z,60.90
2023-01-10T08:34:37.914Z,57.84
2023-01-10T08:37:05.877Z,56.56
2023-01-10T08:39:35.710Z,58.28
2023-01-10T08:42:03.980Z,59.13
2023-01-10T08:44:31.827Z,60.61
2023-01-10T08:46:59.746Z,61.17
2023-01-10T08:49:27.515Z,64.56
2023-01-10T08:51:55.298Z,64.50
2023-01-10T08:54:23.201Z,62.47
2023-01-10T08:56:50.950Z,60.76
2023-01-10T08:59:18.688Z,57.88
2023-01-10T09:01:46.748Z,56.77
2023-01-10T09:04:14.545Z,58.27
2023-01-10T09:06:42.323Z,60.59
2023-01-10T09:09:10.358Z,61.31
2023-01-10T09:11:38.765Z,64.06
2023-01-10T09:14:07.927Z,63.83
2023-01-10T09:16:35.861Z,62.06
2023-01-10T09:19:04.383Z,60.30
2023-01-10T09:21:32.222Z,58.29
2023-01-10T09:24:00.005Z,57.85
2023-01-10T09:26:27.751Z,59.42
2023-01-10T09:28:55.506Z,61.11
2023-01-10T09:31:23.363Z,61.12
2023-01-10T09:33:53.638Z,63.78
2023-01-10T09:36:21.490Z,65.33
2023-01-10T09:38:49.224Z,62.46
2023-01-10T09:42:02.368Z,61.26
2023-01-10T09:44:42.308Z,59.52
2023-01-10T09:47:23.032Z,57.99
2023-01-10T09:50:10.508Z,60.13
2023-01-10T09:52:41.459Z,59.95
2023-01-10T09:55:27.912Z,63.12
2023-01-10T09:57:57.867Z,62.87
2023-01-10T10:00:39.363Z,62.72
2023-01-10T10:03:26.136Z,61.08
2023-01-10T10:06:00.844Z,59.70
2023-01-10T10:08:36.149Z,57.25
2023-01-10T10:11:23.577Z,58.00
2023-01-10T10:14:02.933Z,57.75
2023-01-10T10:16:44.074Z,60.54
2023-01-10T10:19:53.440Z,63.21
2023-01-10T10:22:38.280Z,64.25
2023-01-10T10:25:08.998Z,60.57
2023-01-10T10:28:20.955Z,56.49
2023-01-10T10:31:08.632Z,56.58
2023-01-10T10:34:16.090Z,58.65
2023-01-10T10:37:25.107Z,60.23
2023-01-10T10:40:26.043Z,60.18
2023-01-10T10:42:56.167Z,61.91
2023-01-10T10:45:39.521Z,64.89
2023-01-10T10:48:18.235Z,63.35
2023-01-10T10:51:24.415Z,61.52
2023-01-10T10:53:52.275Z,61.23
2023-01-10T10:56:21.839Z,60.03
2023-01-10T10:58:51.752Z,57.06
2023-01-10T11:01:20.064Z,57.26
2023-01-10T11:03:52.792Z,57.83
2023-01-10T11:06:21.762Z,58.32
2023-01-10T11:08:53.204Z,60.02
2023-01-10T11:11:26.324Z,60.78
2023-01-10T11:13:57.150Z,63.24
2023-01-10T11:16:33.395Z,64.03
2023-01-10T11:19:21.556Z,62.97
2023-01-10T11:21:54.017Z,61.25
2023-01-10T11:24:38.359Z,58.12
2023-01-10T11:27:21.262Z,57.57
2023-01-10T11:29:54.011Z,59.18
2023-01-10T11:32:27.730Z,60.32
2023-01-10T11:34:59.140Z,61.87
2023-01-10T11:37:32.762Z,63.62
2023-01-10T11:40:24.011Z,63.93
2023-01-10T11:42:59.145Z,62.89
2023-01-10T11:45:32.975Z,61.04
2023-01-10T11:48:21.391Z,58.65
2023-01-10T11:50:55.239Z,58.03
2023-01-10T11:53:43.190Z,59.45
2023-01-10T11:56:13.990Z,60.39
2023-01-10T11:58:42.685Z,61.26
2023-01-10T12:01:31.112Z,63.28
2023-01-10T12:03:59.040Z,64.29
2023-01-10T12:06:27.903Z,64.22
2023-01-10T12:08:58.087Z,61.98
2023-01-10T12:11:33.185Z,60.59
2023-01-10T12:14:02.016Z,58.65
2023-01-10T12:16:34.453Z,58.07
2023-01-10T12:19:05.217Z,59.79
2023-01-10T12:21:39.114Z,59.66
2023-01-10T12:24:16.331Z,61.37
2023-01-10T12:26:44.867Z,64.26
2023-01-10T12:29:16.654Z,64.07
2023-01-10T12:31:44.598Z,62.07
2023-01-10T12:34:20.146Z,60.86
2023-01-10T12:37:04.395Z,58.40
2023-01-10T12:39:35.062Z,57.14
2023-01-10T12:42:32.622Z,58.51
2023-01-10T12:45:09.246Z,59.17
2023-01-10T12:47:57.372Z,60.66
2023-01-10T12:50:42.064Z,63.11
2023-01-10T12:53:30.950Z,64.49
2023-01-10T12:56:04.221Z,62.49
2023-01-10T12:58:56.060Z,62.67
2023-01-10T13:01:32.273Z,61.51
2023-01-10T13:04:04.333Z,59.44
2023-01-10T13:06:35.276Z,58.46
2023-01-10T13:09:17.236Z,59.35
2023-01-10T13:12:14.877Z,60.47
2023-01-10T13:15:04.970Z,60.88
2023-01-10T13:17:32.738Z,63.73
2023-01-10T13:20:27.669Z,64.87
2023-01-10T13:22:58.063Z,63.17
2023-01-10T13:25:37.904Z,60.49
2023-01-10T13:28:10.190Z,58.18
2023-01-10T13:30:40.683Z,58.23
2023-01-10T13:33:25.043Z,57.48
2023-01-10T13:35:53.475Z,58.01
2023-01-10T13:38:30.088Z,59.40
2023-01-10T13:40:57.865Z,59.70
2023-01-10T13:43:29.406Z,60.86
2023-01-10T13:46:23.385Z,62.37
2023-01-10T13:48:51.188Z,66.89
2023-01-10T13:51:19.768Z,65.23
2023-01-10T13:53:54.942Z,62.20
2023-01-10T13:56:28.737Z,58.50
2023-01-10T13:59:15.099Z,55.30
2023-01-10T14:02:01.801Z,55.82
2023-01-10T14:04:30.049Z,58.47
2023-01-10T14:07:01.390Z,58.88
2023-01-10T14:09:33.767Z,59.02
2023-01-10T14:12:05.699Z,60.04
2023-01-10T14:14:33.363Z,60.29
2023-01-10T14:17:10.202Z,60.75
2023-01-10T14:19:37.939Z,61.55
2023-01-10T14:22:05.686Z,61.32
2023-01-10T14:24:43.357Z,61.60
2023-01-10T14:27:14.978Z,66.89
2023-01-10T14:29:50.025Z,70.48
2023-01-10T14:32:26.984Z,66.78
2023-01-10T14:34:54.720Z,62.53
2023-01-10T14:37:31.313Z,60.29
2023-01-10T14:39:59.352Z,56.92
2023-01-10T14:42:27.347Z,54.87
2023-01-10T14:45:10.462Z,55.44
2023-01-10T14:47:39.062Z,56.56
2023-01-10T14:50:07.101Z,57.40
2023-01-10T14:52:34.716Z,57.75
2023-01-10T14:55:04.643Z,58.54
2023-01-10T14:57:32.347Z,58.58
2023-01-10T15:00:15.669Z,59.56
2023-01-10T15:02:45.823Z,59.31
2023-01-10T15:05:20.794Z,60.10
2023-01-10T15:07:48.723Z,60.16
2023-01-10T15:10:27.505Z,60.77
2023-01-10T15:12:56.396Z,64.85
2023-01-10T15:15:27.482Z,68.20
2023-01-10T15:17:55.269Z,67.21
2023-01-10T15:20:23.110Z,66.21
2023-01-10T15:22:54.571Z,60.56
2023-01-10T15:25:24.315Z,55.77
2023-01-10T15:27:52.676Z,55.19
2023-01-10T15:30:24.384Z,55.11
2023-01-10T15:32:52.892Z,56.76
2023-01-10T15:35:27.473Z,57.40
2023-01-10T15:38:11.369Z,58.21
2023-01-10T15:40:39.200Z,58.05
2023-01-10T15:43:13.531Z,58.58
2023-01-10T15:45:42.785Z,59.89
2023-01-10T15:48:29.497Z,60.27
2023-01-10T15:51:03.653Z,60.07
2023-01-10T15:53:51.791Z,60.50
2023-01-10T15:56:20.920Z,61.35
2023-01-10T15:58:48.589Z,66.02
2023-01-10T16:01:16.525Z,68.79
2023-01-10T16:03:45.356Z,64.74
2023-01-10T16:06:23.579Z,62.48
2023-01-10T16:08:52.952Z,56.74
2023-01-10T16:11:43.321Z,53.70
2023-01-10T16:14:11.415Z,54.60
2023-01-10T16:16:39.375Z,56.44
2023-01-10T16:19:07.134Z,55.37
2023-01-10T16:21:36.102Z,55.97
2023-01-10T16:24:04.267Z,56.76
2023-01-10T16:26:31.999Z,57.59
2023-01-10T16:28:59.783Z,58.70
2023-01-10T16:31:27.611Z,58.93
2023-01-10T16:33:55.668Z,59.07
2023-01-10T16:36:23.696Z,58.99
2023-01-10T16:38:51.394Z,59.42
2023-01-10T16:41:37.970Z,60.28
2023-01-10T16:44:05.693Z,61.12
2023-01-10T16:46:33.488Z,66.68
2023-01-10T16:49:01.209Z,69.40
2023-01-10T16:51:30.290Z,63.83
2023-01-10T16:53:58.033Z,60.12
2023-01-10T16:56:26.562Z,57.10
2023-01-10T16:58:54.572Z,54.37
2023-01-10T17:01:24.293Z,55.32
2023-01-10T17:03:52.172Z,55.69
2023-01-10T17:06:20.004Z,56.46
2023-01-10T17:08:49.553Z,56.60
2023-01-10T17:11:18.215Z,58.22
2023-01-10T17:13:46.102Z,58.75
2023-01-10T17:16:13.880Z,58.86
2023-01-10T17:18:42.213Z,58.75
2023-01-10T17:21:20.262Z,59.68
2023-01-10T17:23:48.025Z,61.75
2023-01-10T17:26:16.372Z,67.52
2023-01-10T17:28:49.446Z,67.49
2023-01-10T17:31:19.495Z,61.07
2023-01-10T17:33:48.977Z,56.28
2023-01-10T17:36:19.117Z,54.68
2023-01-10T17:38:47.430Z,56.41
2023-01-10T17:41:15.299Z,56.42
2023-01-10T17:43:42.944Z,57.08
2023-01-10T17:46:11.025Z,57.03
2023-01-10T17:48:38.814Z,57.96
2023-01-10T17:51:06.461Z,59.75
2023-01-10T17:53:34.264Z,60.40
2023-01-10T17:56:02.110Z,64.33
2023-01-10T17:58:29.917Z,65.18
2023-01-10T18:00:57.898Z,65.14
2023-01-10T18:03:25.657Z,62.59
2023-01-10T18:05:54.546Z,60.56
2023-01-10T18:08:22.578Z,54.95
2023-01-10T18:10:50.704Z,54.41
2023-01-10T18:13:18.805Z,55.22
2023-01-10T18:15:47.689Z,55.40
2023-01-10T18:18:16.685Z,55.74
2023-01-10T18:20:44.680Z,59.12
2023-01-10T18:23:22.109Z,63.02
2023-01-10T18:26:00.235Z,65.89
2023-01-10T18:28:40.003Z,62.76
2023-01-10T18:31:09.886Z,56.34
2023-01-10T18:33:37.757Z,53.85
2023-01-10T18:36:06.325Z,54.44
2023-01-10T18:38:35.170Z,54.96
2023-01-10T18:41:02.880Z,55.85
2023-01-10T18:43:31.263Z,57.08
2023-01-10T18:46:03.365Z,59.31
2023-01-10T18:48:31.478Z,60.78
2023-01-10T18:50:59.877Z,61.28
2023-01-10T18:53:28.035Z,64.60
2023-01-10T18:55:56.220Z,66.19
2023-01-10T18:58:25.320Z,63.30
2023-01-10T19:00:53.870Z,59.69
2023-01-10T19:03:21.704Z,54.18
2023-01-10T19:05:49.955Z,53.26
2023-01-10T19:08:17.732Z,53.75
2023-01-10T19:11:07.518Z,54.01
2023-01-10T19:13:33.116Z,54.32
2023-01-10T19:16:28.305Z,54.71
2023-01-10T19:19:00.037Z,55.46
2023-01-10T19:21:29.396Z,55.80
2023-01-10T19:24:00.103Z,55.79
2023-01-10T19:26:28.419Z,55.76
2023-01-10T19:28:56.482Z,56.14
2023-01-10T19:31:25.371Z,56.31
2023-01-10T19:33:53.423Z,56.81
2023-01-10T19:36:22.342Z,56.85
2023-01-10T19:38:57.030Z,57.18
2023-01-10T19:41:25.359Z,57.48
2023-01-10T19:43:59.678Z,57.68
2023-01-10T19:46:27.720Z,57.93
2023-01-10T19:48:55.741Z,58.15
2023-01-10T19:51:23.513Z,58.32
2023-01-10T19:53:51.103Z,58.47
2023-01-10T19:56:23.037Z,58.61
2023-01-10T19:58:51.036Z,58.78
2023-01-10T20:01:19.958Z,59.00
2023-01-10T20:03:47.837Z,59.39
2023-01-10T20:06:17.240Z,59.58
2023-01-10T20:08:45.203Z,59.70
2023-01-10T20:11:12.996Z,59.85
2023-01-10T20:13:45.101Z,60.05
2023-01-10T20:16:13.496Z,60.37
2023-01-10T20:18:41.442Z,60.77
2023-01-10T20:21:09.715Z,60.84
2023-01-10T20:23:37.947Z,60.93
2023-01-10T20:26:06.679Z,61.09
2023-01-10T20:28:34.480Z,61.15
2023-01-10T20:31:02.262Z,61.24
2023-01-10T20:33:30.020Z,61.50
2023-01-10T20:36:01.734Z,61.45
2023-01-10T20:38:29.695Z,61.53
2023-01-10T20:41:01.002Z,61.65
2023-01-10T20:43:28.733Z,62.06
2023-01-10T20:45:56.472Z,67.07
2023-01-10T20:48:24.220Z,69.63
2023-01-10T20:50:51.839Z,67.34
2023-01-10T20:53:19.731Z,64.32
2023-01-10T20:55:59.121Z,61.54
2023-01-10T20:58:27.521Z,57.62
2023-01-10T21:00:55.219Z,54.02
2023-01-10T21:03:22.858Z,54.05
2023-01-10T21:05:51.112Z,54.45
2023-01-10T21:08:19.171Z,54.84
2023-01-10T21:10:47.141Z,55.55
2023-01-10T21:13:14.808Z,56.37
2023-01-10T21:15:43.710Z,57.12
2023-01-10T21:18:12.043Z,57.59
2023-01-10T21:20:43.592Z,58.01
2023-01-10T21:23:11.677Z,58.35
2023-01-10T21:25:39.631Z,58.25
2023-01-10T21:28:09.832Z,58.37
2023-01-10T21:30:37.960Z,58.92
2023-01-10T21:33:05.780Z,59.18
2023-01-10T21:35:33.918Z,59.33
2023-01-10T21:38:02.283Z,59.79
2023-01-10T21:40:31.806Z,60.60
2023-01-10T21:43:00.171Z,61.44
2023-01-10T21:45:28.554Z,61.41
2023-01-10T21:47:56.568Z,61.34
2023-01-10T21:50:24.183Z,61.48
2023-01-10T21:52:51.870Z,61.69
2023-01-10T21:55:19.644Z,61.81
2023-01-10T21:57:47.315Z,62.31
2023-01-10T22:00:15.129Z,65.58
2023-01-10T22:02:43.105Z,72.09
2023-01-10T22:05:11.239Z,66.17
2023-01-10T22:07:38.903Z,62.28
2023-01-10T22:10:07.603Z,58.93
2023-01-10T22:12:36.670Z,55.99
2023-01-10T22:15:04.694Z,55.86
2023-01-10T22:17:32.361Z,56.38
2023-01-10T22:20:00.039Z,56.38
2023-01-10T22:22:27.712Z,56.82
2023-01-10T22:24:55.469Z,57.45
2023-01-10T22:27:23.067Z,58.04
2023-01-10T22:29:50.789Z,58.27
2023-01-10T22:32:18.512Z,59.45
2023-01-10T22:34:46.188Z,60.29
2023-01-10T22:37:13.836Z,59.69
2023-01-10T22:39:41.797Z,59.55
2023-01-10T22:42:09.394Z,59.96
2023-01-10T22:44:37.029Z,60.22
2023-01-10T22:47:04.714Z,60.68
2023-01-10T22:49:32.331Z,61.16
2023-01-10T22:51:59.950Z,62.08
2023-01-10T22:54:27.690Z,61.98
2023-01-10T22:56:55.410Z,61.87
2023-01-10T22:59:23.131Z,61.84
2023-01-10T23:01:50.912Z,62.15
2023-01-10T23:04:20.300Z,63.96
2023-01-10T23:06:48.577Z,69.90
2023-01-10T23:09:16.235Z,68.58
2023-01-10T23:11:43.865Z,63.98
2023-01-10T23:14:11.615Z,60.78
2023-01-10T23:16:39.320Z,56.52
2023-01-10T23:19:07.043Z,54.56
2023-01-10T23:21:34.710Z,54.76
2023-01-10T23:24:02.355Z,55.06
2023-01-10T23:26:30.022Z,55.69
2023-01-10T23:28:57.723Z,56.21
2023-01-10T23:31:29.516Z,56.03
2023-01-10T23:33:57.577Z,56.68
2023-01-10T23:36:25.203Z,57.32
2023-01-10T23:38:53.018Z,57.89
2023-01-10T23:41:21.172Z,58.38
2023-01-10T23:43:49.403Z,58.74
2023-01-10T23:46:17.267Z,59.00
2023-01-10T23:48:46.527Z,59.17
2023-01-10T23:51:14.681Z,59.64
2023-01-10T23:53:42.360Z,60.04
2023-01-10T23:56:10.867Z,60.05
2023-01-10T23:58:38.740Z,60.17
